TFV009 GMAD-EPKK
Flight info
| Callsign | TFV009 |
|---|---|
| Flight time | 4h 5m |
| Altitude | 34000 |
| Route | MOGBA UH400 AGOVA UM372 FES UG850 BERUM/N0464F360 DCT GONZA DCT AMR N860 BEGOX M445 SOPET M985 LUMAS DCT NIBIK DCT STP DCT RAPED DCT PIGOS DCT EKSID DCT NOSTA DCT NOPMU DCT LAGEN DCT ROBAS DCT NOBMI DCT MALUG/N0457F370 DCT INGID DCT STO DCT LEDVA DCT NETIR |
| Aircraft | B738/M-SDE2E3FGHIRWXY/LB1 |
Departure
| Time | 2026-04-24 16:39 |
|---|---|
| Airport | Al Massira Airport (GMAD) |
Arrival
| Time | 2026-04-24 20:45 |
|---|---|
| Airport | Kraków John Paul II International Airport (EPKK) |
| Time | Latitude | Longitude | Altitude | Speed | Heading |
|---|---|---|---|---|---|
| 2026-04-24 16:39 | 30.38384 | -9.51181 | 4649 ft | 262 kts | 313° |
| 2026-04-24 16:39 | 30.39023 | -9.52018 | 5041 ft | 261 kts | 318° |
| 2026-04-24 16:39 | 30.40258 | -9.52907 | 5761 ft | 258 kts | 343° |
| 2026-04-24 16:39 | 30.41596 | -9.53101 | 6283 ft | 262 kts | 2° |
| 2026-04-24 16:40 | 30.42833 | -9.52866 | 6817 ft | 262 kts | 15° |
| 2026-04-24 16:40 | 30.44482 | -9.51946 | 7587 ft | 266 kts | 29° |
| 2026-04-24 16:40 | 30.46044 | -9.50728 | 8166 ft | 275 kts | 32° |
| 2026-04-24 16:40 | 30.47613 | -9.49441 | 8874 ft | 279 kts | 32° |
| 2026-04-24 16:41 | 30.49202 | -9.48129 | 9562 ft | 283 kts | 31° |
| 2026-04-24 16:41 | 30.50825 | -9.46795 | 10132 ft | 290 kts | 31° |
| 2026-04-24 16:41 | 30.52524 | -9.45403 | 10390 ft | 310 kts | 33° |
| 2026-04-24 16:41 | 30.54351 | -9.43912 | 10551 ft | 332 kts | 33° |
| 2026-04-24 16:42 | 30.56295 | -9.42324 | 10718 ft | 352 kts | 32° |
| 2026-04-24 16:42 | 30.58354 | -9.40648 | 10870 ft | 371 kts | 31° |
| 2026-04-24 16:42 | 30.60481 | -9.38918 | 11173 ft | 383 kts | 32° |
| 2026-04-24 16:42 | 30.62673 | -9.37128 | 11742 ft | 387 kts | 33° |
| 2026-04-24 16:43 | 30.64892 | -9.35317 | 12233 ft | 393 kts | 33° |
| 2026-04-24 16:43 | 30.67141 | -9.33483 | 12761 ft | 397 kts | 33° |
| 2026-04-24 16:43 | 30.69409 | -9.31635 | 13311 ft | 400 kts | 33° |
| 2026-04-24 16:43 | 30.71695 | -9.29772 | 13818 ft | 403 kts | 33° |
| 2026-04-24 16:44 | 30.74007 | -9.27887 | 14250 ft | 408 kts | 33° |
| 2026-04-24 16:44 | 30.76339 | -9.25987 | 14671 ft | 410 kts | 32° |
| 2026-04-24 16:44 | 30.78682 | -9.24074 | 15132 ft | 413 kts | 32° |
| 2026-04-24 16:44 | 30.81043 | -9.22146 | 15553 ft | 417 kts | 32° |
| 2026-04-24 16:45 | 30.83426 | -9.20198 | 15983 ft | 419 kts | 31° |
| 2026-04-24 16:45 | 30.85818 | -9.18242 | 16435 ft | 422 kts | 31° |
| 2026-04-24 16:45 | 30.88231 | -9.16267 | 16812 ft | 426 kts | 31° |
| 2026-04-24 16:45 | 30.90664 | -9.14275 | 17211 ft | 429 kts | 31° |
| 2026-04-24 16:46 | 30.93115 | -9.12266 | 17621 ft | 431 kts | 29° |
| 2026-04-24 16:46 | 30.95568 | -9.10253 | 17963 ft | 434 kts | 30° |
| 2026-04-24 16:46 | 30.98053 | -9.08217 | 18343 ft | 437 kts | 30° |
| 2026-04-24 16:46 | 31.00521 | -9.06129 | 18679 ft | 442 kts | 34° |
| 2026-04-24 16:47 | 31.02764 | -9.03631 | 18984 ft | 451 kts | 44° |
| 2026-04-24 16:47 | 31.04689 | -9.00715 | 19322 ft | 456 kts | 49° |
| 2026-04-24 16:47 | 31.06559 | -8.97711 | 19633 ft | 460 kts | 49° |
| 2026-04-24 16:47 | 31.08437 | -8.94674 | 19936 ft | 462 kts | 49° |
| 2026-04-24 16:48 | 31.10329 | -8.91630 | 20301 ft | 465 kts | 49° |
| 2026-04-24 16:48 | 31.12241 | -8.88579 | 20638 ft | 467 kts | 49° |
| 2026-04-24 16:48 | 31.14173 | -8.85516 | 20898 ft | 470 kts | 49° |
| 2026-04-24 16:48 | 31.16117 | -8.82443 | 21262 ft | 471 kts | 49° |
| 2026-04-24 16:49 | 31.18069 | -8.79360 | 21530 ft | 473 kts | 49° |
| 2026-04-24 16:49 | 31.20034 | -8.76259 | 21779 ft | 477 kts | 49° |
| 2026-04-24 16:49 | 31.22011 | -8.73134 | 22068 ft | 479 kts | 49° |
| 2026-04-24 16:49 | 31.23994 | -8.69994 | 22422 ft | 482 kts | 49° |
| 2026-04-24 16:50 | 31.25314 | -8.67902 | 22597 ft | 484 kts | 49° |
| 2026-04-24 16:50 | 31.27993 | -8.63652 | 22962 ft | 487 kts | 49° |
| 2026-04-24 16:50 | 31.30007 | -8.60455 | 23239 ft | 490 kts | 49° |
| 2026-04-24 16:50 | 31.32033 | -8.57237 | 23503 ft | 492 kts | 49° |
| 2026-04-24 16:51 | 31.34063 | -8.54004 | 23735 ft | 494 kts | 49° |
| 2026-04-24 16:51 | 31.36100 | -8.50755 | 23970 ft | 496 kts | 49° |
| 2026-04-24 16:51 | 31.38140 | -8.47496 | 24231 ft | 497 kts | 49° |
| 2026-04-24 16:51 | 31.40182 | -8.44230 | 24478 ft | 498 kts | 49° |
| 2026-04-24 16:52 | 31.42230 | -8.40954 | 24709 ft | 500 kts | 49° |
| 2026-04-24 16:52 | 31.44283 | -8.37666 | 24935 ft | 501 kts | 49° |
| 2026-04-24 16:52 | 31.46341 | -8.34367 | 25195 ft | 503 kts | 49° |
| 2026-04-24 16:52 | 31.48411 | -8.31048 | 25372 ft | 505 kts | 49° |
| 2026-04-24 16:53 | 31.50489 | -8.27712 | 25572 ft | 508 kts | 49° |
| 2026-04-24 16:53 | 31.52571 | -8.24365 | 25808 ft | 509 kts | 49° |
| 2026-04-24 16:53 | 31.54653 | -8.21014 | 26121 ft | 508 kts | 48° |
| 2026-04-24 16:53 | 31.56728 | -8.17672 | 26509 ft | 506 kts | 48° |
| 2026-04-24 16:54 | 31.58792 | -8.14345 | 26881 ft | 504 kts | 48° |
| 2026-04-24 16:54 | 31.60851 | -8.11018 | 27213 ft | 503 kts | 49° |
| 2026-04-24 16:54 | 31.62746 | -8.07544 | 27500 ft | 509 kts | 55° |
| 2026-04-24 16:54 | 31.64432 | -8.03894 | 27820 ft | 509 kts | 57° |
| 2026-04-24 16:55 | 31.66057 | -8.00197 | 28188 ft | 508 kts | 57° |
| 2026-04-24 16:55 | 31.67667 | -7.96509 | 28543 ft | 507 kts | 57° |
| 2026-04-24 16:55 | 31.69288 | -7.92837 | 28879 ft | 506 kts | 57° |
| 2026-04-24 16:55 | 31.70927 | -7.89181 | 29236 ft | 505 kts | 56° |
| 2026-04-24 16:56 | 31.72574 | -7.85546 | 29601 ft | 504 kts | 56° |
| 2026-04-24 16:56 | 31.74222 | -7.81925 | 29972 ft | 502 kts | 56° |
| 2026-04-24 16:56 | 31.75867 | -7.78309 | 30285 ft | 501 kts | 56° |
| 2026-04-24 16:56 | 31.77510 | -7.74693 | 30558 ft | 501 kts | 56° |
| 2026-04-24 16:57 | 31.79149 | -7.71076 | 30774 ft | 502 kts | 56° |
| 2026-04-24 16:57 | 31.80788 | -7.67454 | 31027 ft | 502 kts | 56° |
| 2026-04-24 16:57 | 31.82425 | -7.63830 | 31334 ft | 501 kts | 56° |
| 2026-04-24 16:57 | 31.84054 | -7.60218 | 31622 ft | 500 kts | 56° |
| 2026-04-24 16:58 | 31.85686 | -7.56599 | 31825 ft | 502 kts | 56° |
| 2026-04-24 16:58 | 31.87326 | -7.52961 | 31969 ft | 505 kts | 56° |
| 2026-04-24 16:58 | 31.88967 | -7.49314 | 32232 ft | 504 kts | 56° |
| 2026-04-24 16:58 | 31.90593 | -7.45670 | 32559 ft | 502 kts | 56° |
| 2026-04-24 16:59 | 31.92207 | -7.42035 | 32837 ft | 501 kts | 56° |
| 2026-04-24 16:59 | 31.93820 | -7.38392 | 33048 ft | 502 kts | 56° |
| 2026-04-24 16:59 | 31.97047 | -7.31106 | 33496 ft | 502 kts | 56° |
| 2026-04-24 17:00 | 31.98656 | -7.27469 | 33773 ft | 500 kts | 56° |
| 2026-04-24 17:00 | 32.01870 | -7.20199 | 34162 ft | 501 kts | 56° |
| 2026-04-24 17:00 | 32.03489 | -7.16548 | 34231 ft | 504 kts | 56° |
| 2026-04-24 17:01 | 32.06749 | -7.09219 | 34621 ft | 503 kts | 56° |
| 2026-04-24 17:01 | 32.08370 | -7.05570 | 34831 ft | 503 kts | 56° |
| 2026-04-24 17:02 | 32.11614 | -6.98255 | 35152 ft | 503 kts | 57° |
| 2026-04-24 17:02 | 32.13233 | -6.94595 | 35305 ft | 504 kts | 56° |
| 2026-04-24 17:02 | 32.14828 | -6.90985 | 35512 ft | 502 kts | 57° |
| 2026-04-24 17:02 | 32.16439 | -6.87336 | 35786 ft | 501 kts | 57° |
| 2026-04-24 17:03 | 32.19661 | -6.80034 | 36026 ft | 503 kts | 57° |
| 2026-04-24 17:03 | 32.21281 | -6.76365 | 36037 ft | 505 kts | 57° |
| 2026-04-24 17:04 | 32.24546 | -6.68968 | 36038 ft | 511 kts | 57° |
| 2026-04-24 17:04 | 32.29478 | -6.57752 | 36030 ft | 514 kts | 57° |
| 2026-04-24 17:05 | 32.32769 | -6.50247 | 36033 ft | 514 kts | 57° |
| 2026-04-24 17:06 | 32.37700 | -6.38974 | 36030 ft | 515 kts | 57° |
| 2026-04-24 17:06 | 32.41277 | -6.31697 | 36026 ft | 505 kts | 45° |
| 2026-04-24 17:06 | 32.43564 | -6.28593 | 36028 ft | 497 kts | 38° |
| 2026-04-24 17:07 | 32.48902 | -6.23615 | 36050 ft | 485 kts | 27° |
| 2026-04-24 17:08 | 32.59975 | -6.14542 | 36023 ft | 483 kts | 28° |
| 2026-04-24 17:08 | 32.65460 | -6.09944 | 36029 ft | 482 kts | 28° |
| 2026-04-24 17:09 | 32.76372 | -6.00778 | 36064 ft | 482 kts | 28° |
| 2026-04-24 17:10 | 32.87336 | -5.91561 | 36045 ft | 482 kts | 29° |
| 2026-04-24 17:12 | 33.09203 | -5.73087 | 36064 ft | 482 kts | 29° |
| 2026-04-24 18:54 | 42.86223 | 5.56650 | 36144 ft | 457 kts | 59° |
| 2026-04-24 18:55 | 42.91073 | 5.67840 | 36139 ft | 457 kts | 60° |
| 2026-04-24 18:56 | 42.94299 | 5.75307 | 36146 ft | 456 kts | 60° |
| 2026-04-24 18:56 | 42.97511 | 5.82762 | 36127 ft | 455 kts | 60° |
| 2026-04-24 18:57 | 43.00715 | 5.90215 | 36120 ft | 454 kts | 60° |
| 2026-04-24 18:57 | 43.03370 | 5.96406 | 36104 ft | 454 kts | 60° |
| 2026-04-24 18:58 | 43.06556 | 6.03851 | 36101 ft | 454 kts | 60° |
| 2026-04-24 18:58 | 43.09738 | 6.11309 | 36108 ft | 453 kts | 60° |
| 2026-04-24 18:59 | 43.12909 | 6.18759 | 36103 ft | 453 kts | 60° |
| 2026-04-24 18:59 | 43.16070 | 6.26204 | 36105 ft | 452 kts | 60° |
| 2026-04-24 19:00 | 43.19225 | 6.33653 | 36103 ft | 451 kts | 60° |
| 2026-04-24 19:00 | 43.22372 | 6.41104 | 36080 ft | 451 kts | 60° |
| 2026-04-24 19:01 | 43.25513 | 6.48559 | 36090 ft | 451 kts | 60° |
| 2026-04-24 19:01 | 43.28646 | 6.56014 | 36081 ft | 450 kts | 60° |
| 2026-04-24 19:02 | 43.31771 | 6.63471 | 36090 ft | 450 kts | 60° |
| 2026-04-24 19:02 | 43.34867 | 6.70876 | 36078 ft | 450 kts | 60° |
| 2026-04-24 19:03 | 43.37976 | 6.78331 | 36085 ft | 449 kts | 61° |
| 2026-04-24 19:03 | 43.41081 | 6.85798 | 36091 ft | 449 kts | 60° |
| 2026-04-24 19:04 | 43.44174 | 6.93253 | 36072 ft | 449 kts | 60° |
| 2026-04-24 19:04 | 43.47279 | 7.00758 | 36081 ft | 452 kts | 60° |
| 2026-04-24 19:05 | 43.50394 | 7.08306 | 36081 ft | 454 kts | 61° |
| 2026-04-24 19:05 | 43.53516 | 7.15891 | 36076 ft | 455 kts | 61° |
| 2026-04-24 19:06 | 43.56632 | 7.23482 | 36076 ft | 455 kts | 61° |
| 2026-04-24 19:06 | 43.59732 | 7.31053 | 36070 ft | 451 kts | 61° |
| 2026-04-24 19:07 | 43.62863 | 7.38562 | 36072 ft | 451 kts | 57° |
| 2026-04-24 19:07 | 43.66493 | 7.45632 | 36085 ft | 451 kts | 54° |
| 2026-04-24 19:08 | 43.70210 | 7.52634 | 36081 ft | 452 kts | 54° |
| 2026-04-24 19:08 | 43.73868 | 7.59715 | 36088 ft | 453 kts | 55° |
| 2026-04-24 19:09 | 43.77503 | 7.66827 | 36083 ft | 453 kts | 55° |
| 2026-04-24 19:09 | 43.81160 | 7.73933 | 36083 ft | 454 kts | 51° |
| 2026-04-24 19:10 | 43.85782 | 7.79865 | 36092 ft | 455 kts | 38° |
| 2026-04-24 19:10 | 43.90819 | 7.85092 | 36083 ft | 456 kts | 38° |
| 2026-04-24 19:11 | 43.95808 | 7.90518 | 36081 ft | 456 kts | 42° |
| 2026-04-24 19:11 | 44.00400 | 7.96572 | 36088 ft | 455 kts | 45° |
| 2026-04-24 19:12 | 44.04887 | 8.02774 | 36079 ft | 455 kts | 45° |
| 2026-04-24 19:12 | 44.09402 | 8.08948 | 36072 ft | 455 kts | 45° |
| 2026-04-24 19:13 | 44.13169 | 8.14056 | 36070 ft | 455 kts | 45° |
| 2026-04-24 19:13 | 44.18471 | 8.21238 | 36087 ft | 455 kts | 45° |
| 2026-04-24 19:14 | 44.23007 | 8.27400 | 36086 ft | 456 kts | 45° |
| 2026-04-24 19:14 | 44.27541 | 8.33574 | 36096 ft | 456 kts | 45° |
| 2026-04-24 19:15 | 44.32070 | 8.39760 | 36110 ft | 455 kts | 45° |
| 2026-04-24 19:15 | 44.36572 | 8.45917 | 36099 ft | 451 kts | 45° |
| 2026-04-24 19:16 | 44.43155 | 8.55240 | 36103 ft | 447 kts | 49° |
| 2026-04-24 19:16 | 44.47358 | 8.61654 | 36106 ft | 448 kts | 49° |
| 2026-04-24 19:17 | 44.51590 | 8.68131 | 36110 ft | 452 kts | 49° |
| 2026-04-24 19:17 | 44.55859 | 8.74628 | 36110 ft | 454 kts | 48° |
| 2026-04-24 19:18 | 44.60154 | 8.81141 | 36109 ft | 455 kts | 48° |
| 2026-04-24 19:18 | 44.64453 | 8.87671 | 36097 ft | 456 kts | 48° |
| 2026-04-24 19:19 | 44.68734 | 8.94191 | 36088 ft | 451 kts | 48° |
| 2026-04-24 19:19 | 44.72970 | 9.00662 | 36077 ft | 448 kts | 48° |
| 2026-04-24 19:20 | 44.77185 | 9.07114 | 36082 ft | 447 kts | 48° |
| 2026-04-24 19:20 | 44.81395 | 9.13576 | 36069 ft | 447 kts | 48° |
| 2026-04-24 19:21 | 44.85604 | 9.20051 | 36073 ft | 449 kts | 48° |
| 2026-04-24 19:21 | 44.89827 | 9.26563 | 36056 ft | 451 kts | 48° |
| 2026-04-24 19:22 | 44.94060 | 9.33105 | 36042 ft | 452 kts | 48° |
| 2026-04-24 19:22 | 44.98269 | 9.39627 | 36014 ft | 453 kts | 48° |
| 2026-04-24 19:23 | 45.02516 | 9.46221 | 36015 ft | 454 kts | 48° |
| 2026-04-24 19:23 | 45.06760 | 9.52827 | 36010 ft | 454 kts | 48° |
| 2026-04-24 19:24 | 45.11009 | 9.59457 | 36000 ft | 455 kts | 48° |
| 2026-04-24 19:24 | 45.15252 | 9.66093 | 36011 ft | 454 kts | 48° |
| 2026-04-24 19:25 | 45.19488 | 9.72733 | 35997 ft | 454 kts | 48° |
| 2026-04-24 19:25 | 45.23581 | 9.79523 | 35993 ft | 453 kts | 51° |
| 2026-04-24 19:26 | 45.27583 | 9.86422 | 35994 ft | 452 kts | 51° |
| 2026-04-24 19:26 | 45.31589 | 9.93314 | 35993 ft | 452 kts | 51° |
| 2026-04-24 19:27 | 45.35607 | 10.00194 | 35988 ft | 453 kts | 50° |
| 2026-04-24 19:27 | 45.39627 | 10.07080 | 35996 ft | 453 kts | 50° |
| 2026-04-24 19:28 | 45.43652 | 10.13990 | 36003 ft | 453 kts | 50° |
| 2026-04-24 19:28 | 45.47669 | 10.20906 | 35995 ft | 453 kts | 50° |
| 2026-04-24 19:29 | 45.53675 | 10.31280 | 36023 ft | 452 kts | 50° |
| 2026-04-24 19:30 | 45.57674 | 10.38207 | 36021 ft | 452 kts | 50° |
| 2026-04-24 19:30 | 45.61663 | 10.45135 | 36042 ft | 451 kts | 50° |
| 2026-04-24 19:31 | 45.65636 | 10.52075 | 36046 ft | 451 kts | 51° |
| 2026-04-24 19:31 | 45.69430 | 10.59228 | 36084 ft | 452 kts | 53° |
| 2026-04-24 19:32 | 45.73157 | 10.66476 | 36104 ft | 452 kts | 53° |
| 2026-04-24 19:32 | 45.76889 | 10.73707 | 36107 ft | 451 kts | 53° |
| 2026-04-24 19:33 | 45.80631 | 10.80925 | 36095 ft | 451 kts | 53° |
| 2026-04-24 19:33 | 45.84371 | 10.88138 | 36125 ft | 450 kts | 53° |
| 2026-04-24 19:34 | 45.88080 | 10.95307 | 36126 ft | 451 kts | 53° |
| 2026-04-24 19:34 | 45.91815 | 11.02545 | 36149 ft | 452 kts | 53° |
| 2026-04-24 19:35 | 45.95576 | 11.09854 | 36163 ft | 452 kts | 53° |
| 2026-04-24 19:35 | 45.99282 | 11.17076 | 36173 ft | 452 kts | 53° |
| 2026-04-24 19:36 | 46.03005 | 11.24350 | 36167 ft | 451 kts | 53° |
| 2026-04-24 19:36 | 46.06721 | 11.31627 | 36155 ft | 451 kts | 53° |
| 2026-04-24 19:37 | 46.10423 | 11.38896 | 36131 ft | 450 kts | 53° |
| 2026-04-24 19:37 | 46.14117 | 11.46170 | 36127 ft | 450 kts | 53° |
| 2026-04-24 19:38 | 46.17806 | 11.53450 | 36106 ft | 450 kts | 53° |
| 2026-04-24 19:38 | 46.21496 | 11.60753 | 36083 ft | 450 kts | 53° |
| 2026-04-24 19:39 | 46.25177 | 11.68058 | 36059 ft | 450 kts | 53° |
| 2026-04-24 19:39 | 46.28856 | 11.75376 | 36061 ft | 450 kts | 53° |
| 2026-04-24 19:40 | 46.32532 | 11.82708 | 36048 ft | 450 kts | 53° |
| 2026-04-24 19:40 | 46.36205 | 11.90054 | 36051 ft | 451 kts | 53° |
| 2026-04-24 19:41 | 46.39967 | 11.97328 | 36051 ft | 451 kts | 51° |
| 2026-04-24 19:41 | 46.43914 | 12.04430 | 36054 ft | 453 kts | 50° |
| 2026-04-24 19:42 | 46.47879 | 12.11533 | 36049 ft | 453 kts | 50° |
| 2026-04-24 19:42 | 46.51821 | 12.18673 | 36055 ft | 453 kts | 51° |
| 2026-04-24 19:43 | 46.55745 | 12.25842 | 36123 ft | 453 kts | 51° |
| 2026-04-24 19:43 | 46.59654 | 12.33012 | 36143 ft | 452 kts | 51° |
| 2026-04-24 19:44 | 46.62896 | 12.38974 | 36143 ft | 452 kts | 51° |
| 2026-04-24 19:44 | 46.66794 | 12.46157 | 36128 ft | 452 kts | 51° |
| 2026-04-24 19:45 | 46.70690 | 12.53353 | 36123 ft | 453 kts | 51° |
| 2026-04-24 19:45 | 46.74586 | 12.60570 | 36100 ft | 453 kts | 51° |
| 2026-04-24 19:46 | 46.78478 | 12.67796 | 36096 ft | 453 kts | 51° |
| 2026-04-24 19:46 | 46.82364 | 12.75031 | 36077 ft | 453 kts | 51° |
| 2026-04-24 19:47 | 46.86245 | 12.82275 | 36076 ft | 452 kts | 51° |
| 2026-04-24 19:47 | 46.90115 | 12.89519 | 36081 ft | 452 kts | 50° |
| 2026-04-24 19:48 | 46.93980 | 12.96771 | 36091 ft | 451 kts | 51° |
| 2026-04-24 19:48 | 46.99760 | 13.07653 | 36085 ft | 451 kts | 51° |
| 2026-04-24 19:49 | 47.07449 | 13.22194 | 36097 ft | 452 kts | 50° |
| 2026-04-24 19:50 | 47.15107 | 13.36757 | 36093 ft | 446 kts | 48° |
| 2026-04-24 19:51 | 47.20768 | 13.47563 | 36104 ft | 444 kts | 49° |
| 2026-04-24 19:52 | 47.26426 | 13.58415 | 36104 ft | 453 kts | 51° |
| 2026-04-24 19:52 | 47.30269 | 13.65811 | 36101 ft | 456 kts | 51° |
| 2026-04-24 19:53 | 47.34125 | 13.73251 | 36105 ft | 457 kts | 51° |
| 2026-04-24 19:54 | 47.39913 | 13.84459 | 36116 ft | 458 kts | 50° |
| 2026-04-24 19:54 | 47.43764 | 13.91939 | 36099 ft | 457 kts | 50° |
| 2026-04-24 19:55 | 47.46983 | 13.98209 | 36099 ft | 456 kts | 51° |
| 2026-04-24 19:55 | 47.51424 | 14.06880 | 36098 ft | 454 kts | 51° |
| 2026-04-24 19:56 | 47.55229 | 14.14331 | 36102 ft | 453 kts | 51° |
| 2026-04-24 19:56 | 47.59026 | 14.21787 | 36103 ft | 454 kts | 50° |
| 2026-04-24 19:57 | 47.62825 | 14.29266 | 36098 ft | 454 kts | 51° |
| 2026-04-24 19:57 | 47.66617 | 14.36754 | 36114 ft | 454 kts | 51° |
| 2026-04-24 19:58 | 47.70415 | 14.44275 | 36110 ft | 455 kts | 51° |
| 2026-04-24 19:58 | 47.74206 | 14.51801 | 36101 ft | 455 kts | 50° |
| 2026-04-24 19:59 | 47.77996 | 14.59344 | 36102 ft | 456 kts | 50° |
| 2026-04-24 19:59 | 47.81785 | 14.66909 | 36096 ft | 456 kts | 50° |
| 2026-04-24 20:00 | 47.85565 | 14.74476 | 36085 ft | 456 kts | 50° |
| 2026-04-24 20:00 | 47.89314 | 14.82003 | 36083 ft | 455 kts | 50° |
| 2026-04-24 20:01 | 47.93066 | 14.89557 | 36093 ft | 455 kts | 51° |
| 2026-04-24 20:01 | 47.96826 | 14.97148 | 36083 ft | 455 kts | 51° |
| 2026-04-24 20:02 | 47.99979 | 15.03527 | 36089 ft | 455 kts | 50° |
| 2026-04-24 20:02 | 48.04341 | 15.12378 | 36081 ft | 455 kts | 51° |
| 2026-04-24 20:03 | 48.08077 | 15.19984 | 36078 ft | 454 kts | 50° |
| 2026-04-24 20:03 | 48.11815 | 15.27613 | 36081 ft | 454 kts | 50° |
| 2026-04-24 20:04 | 48.15544 | 15.35248 | 36074 ft | 454 kts | 50° |
| 2026-04-24 20:04 | 48.19269 | 15.42894 | 36069 ft | 455 kts | 50° |
| 2026-04-24 20:05 | 48.22993 | 15.50561 | 36070 ft | 455 kts | 50° |
| 2026-04-24 20:05 | 48.26714 | 15.58242 | 36068 ft | 456 kts | 50° |
| 2026-04-24 20:06 | 48.30436 | 15.65947 | 36058 ft | 456 kts | 50° |
| 2026-04-24 20:06 | 48.34160 | 15.73679 | 36063 ft | 456 kts | 50° |
| 2026-04-24 20:07 | 48.37248 | 15.80107 | 36048 ft | 456 kts | 50° |
| 2026-04-24 20:07 | 48.41586 | 15.89164 | 36049 ft | 456 kts | 50° |
| 2026-04-24 20:08 | 48.45300 | 15.96939 | 36050 ft | 458 kts | 50° |
| 2026-04-24 20:08 | 48.49013 | 16.04736 | 36056 ft | 459 kts | 50° |
| 2026-04-24 20:09 | 48.52729 | 16.12564 | 36044 ft | 460 kts | 50° |
| 2026-04-24 20:09 | 48.56447 | 16.20416 | 36043 ft | 460 kts | 50° |
| 2026-04-24 20:10 | 48.60162 | 16.28285 | 36064 ft | 460 kts | 50° |
| 2026-04-24 20:10 | 48.63865 | 16.36155 | 36049 ft | 459 kts | 50° |
| 2026-04-24 20:11 | 48.67563 | 16.44036 | 36042 ft | 459 kts | 50° |
| 2026-04-24 20:11 | 48.71253 | 16.51921 | 36040 ft | 458 kts | 50° |
| 2026-04-24 20:12 | 48.74929 | 16.59802 | 36042 ft | 458 kts | 50° |
| 2026-04-24 20:12 | 48.78580 | 16.67648 | 36041 ft | 459 kts | 50° |
| 2026-04-24 20:13 | 48.82256 | 16.75572 | 36037 ft | 459 kts | 50° |
| 2026-04-24 20:13 | 48.85929 | 16.83514 | 36037 ft | 460 kts | 50° |
| 2026-04-24 20:14 | 48.89595 | 16.91466 | 36043 ft | 459 kts | 50° |
| 2026-04-24 20:14 | 48.93251 | 16.99418 | 36047 ft | 458 kts | 50° |
| 2026-04-24 20:15 | 48.96897 | 17.07373 | 36030 ft | 458 kts | 50° |
| 2026-04-24 20:15 | 49.00539 | 17.15341 | 36037 ft | 458 kts | 50° |
| 2026-04-24 20:16 | 49.04174 | 17.23319 | 36019 ft | 458 kts | 50° |
| 2026-04-24 20:16 | 49.07805 | 17.31310 | 36035 ft | 458 kts | 50° |
| 2026-04-24 20:17 | 49.11434 | 17.39321 | 36027 ft | 459 kts | 50° |
| 2026-04-24 20:17 | 49.16872 | 17.51372 | 36026 ft | 460 kts | 50° |
| 2026-04-24 20:18 | 49.20494 | 17.59427 | 36032 ft | 460 kts | 50° |
| 2026-04-24 20:18 | 49.24119 | 17.67515 | 36041 ft | 461 kts | 50° |
| 2026-04-24 20:19 | 49.27734 | 17.75605 | 36069 ft | 461 kts | 50° |
| 2026-04-24 20:19 | 49.31354 | 17.83729 | 36054 ft | 462 kts | 50° |
| 2026-04-24 20:20 | 49.34973 | 17.91878 | 36051 ft | 462 kts | 50° |
| 2026-04-24 20:20 | 49.38594 | 18.00053 | 35559 ft | 463 kts | 50° |
| 2026-04-24 20:21 | 49.40391 | 18.04125 | 34910 ft | 461 kts | 50° |
| 2026-04-24 20:21 | 49.42188 | 18.08199 | 34240 ft | 461 kts | 50° |
| 2026-04-24 20:21 | 49.43988 | 18.12284 | 33454 ft | 463 kts | 50° |
| 2026-04-24 20:21 | 49.45792 | 18.16382 | 32735 ft | 463 kts | 50° |
| 2026-04-24 20:22 | 49.47595 | 18.20488 | 31961 ft | 464 kts | 50° |
| 2026-04-24 20:22 | 49.49401 | 18.24609 | 31207 ft | 464 kts | 50° |
| 2026-04-24 20:22 | 49.51206 | 18.28730 | 30435 ft | 466 kts | 50° |
| 2026-04-24 20:22 | 49.53016 | 18.32873 | 29559 ft | 467 kts | 51° |
| 2026-04-24 20:23 | 49.54831 | 18.37031 | 28616 ft | 468 kts | 51° |
| 2026-04-24 20:23 | 49.56645 | 18.41197 | 27722 ft | 469 kts | 51° |
| 2026-04-24 20:23 | 49.58462 | 18.45377 | 26766 ft | 470 kts | 51° |
| 2026-04-24 20:23 | 49.60284 | 18.49570 | 25807 ft | 472 kts | 52° |
| 2026-04-24 20:24 | 49.61488 | 18.52349 | 25356 ft | 469 kts | 52° |
| 2026-04-24 20:24 | 49.63870 | 18.57854 | 24466 ft | 462 kts | 52° |
| 2026-04-24 20:24 | 49.65648 | 18.61967 | 23772 ft | 459 kts | 52° |
| 2026-04-24 20:24 | 49.67443 | 18.66007 | 22994 ft | 453 kts | 47° |
| 2026-04-24 20:25 | 49.69648 | 18.69356 | 22282 ft | 439 kts | 32° |
| 2026-04-24 20:25 | 49.72235 | 18.71734 | 21480 ft | 429 kts | 20° |
| 2026-04-24 20:25 | 49.75031 | 18.73154 | 20804 ft | 419 kts | 9° |
| 2026-04-24 20:25 | 49.77865 | 18.74081 | 20150 ft | 414 kts | 8° |
| 2026-04-24 20:26 | 49.80656 | 18.75047 | 19518 ft | 410 kts | 9° |
| 2026-04-24 20:26 | 49.83407 | 18.76055 | 19140 ft | 400 kts | 9° |
| 2026-04-24 20:26 | 49.86015 | 18.77359 | 18879 ft | 393 kts | 23° |
| 2026-04-24 20:26 | 49.88204 | 18.79835 | 18729 ft | 389 kts | 40° |
| 2026-04-24 20:27 | 49.89826 | 18.83157 | 18554 ft | 386 kts | 56° |
| 2026-04-24 20:27 | 49.90840 | 18.86978 | 18389 ft | 382 kts | 70° |
| 2026-04-24 20:27 | 49.91195 | 18.91042 | 18186 ft | 381 kts | 87° |
| 2026-04-24 20:27 | 49.91001 | 18.95096 | 18041 ft | 373 kts | 92° |
| 2026-04-24 20:28 | 49.90733 | 18.99044 | 17860 ft | 364 kts | 92° |
| 2026-04-24 20:28 | 49.90483 | 19.02900 | 17683 ft | 355 kts | 91° |
| 2026-04-24 20:28 | 49.90252 | 19.06696 | 17328 ft | 353 kts | 91° |
| 2026-04-24 20:28 | 49.90033 | 19.10476 | 16998 ft | 350 kts | 91° |
| 2026-04-24 20:29 | 49.89891 | 19.12959 | 16774 ft | 349 kts | 91° |
| 2026-04-24 20:29 | 49.89607 | 19.17952 | 16309 ft | 346 kts | 91° |
| 2026-04-24 20:29 | 49.89393 | 19.21661 | 15975 ft | 344 kts | 91° |
| 2026-04-24 20:29 | 49.89185 | 19.25346 | 15649 ft | 341 kts | 88° |
| 2026-04-24 20:30 | 49.89370 | 19.28960 | 15313 ft | 332 kts | 72° |
| 2026-04-24 20:30 | 49.90127 | 19.32281 | 14990 ft | 324 kts | 61° |
| 2026-04-24 20:30 | 49.91046 | 19.35456 | 14672 ft | 322 kts | 60° |
| 2026-04-24 20:30 | 49.91964 | 19.38614 | 14346 ft | 321 kts | 60° |
| 2026-04-24 20:31 | 49.92866 | 19.41780 | 14013 ft | 320 kts | 61° |
| 2026-04-24 20:31 | 49.93755 | 19.44943 | 13665 ft | 320 kts | 62° |
| 2026-04-24 20:31 | 49.94627 | 19.48071 | 13320 ft | 319 kts | 63° |
| 2026-04-24 20:31 | 49.95304 | 19.51407 | 12953 ft | 322 kts | 73° |
| 2026-04-24 20:32 | 49.95591 | 19.53657 | 12757 ft | 321 kts | 75° |
| 2026-04-24 20:32 | 49.95997 | 19.57050 | 12417 ft | 318 kts | 75° |
| 2026-04-24 20:32 | 49.96558 | 19.61503 | 11991 ft | 316 kts | 75° |
| 2026-04-24 20:32 | 49.96995 | 19.64830 | 11671 ft | 314 kts | 74° |
| 2026-04-24 20:33 | 49.97296 | 19.67066 | 11448 ft | 312 kts | 74° |
| 2026-04-24 20:33 | 49.97741 | 19.70358 | 11125 ft | 311 kts | 75° |
| 2026-04-24 20:33 | 49.98184 | 19.73635 | 10809 ft | 309 kts | 75° |
| 2026-04-24 20:33 | 49.98625 | 19.76890 | 10492 ft | 307 kts | 75° |
| 2026-04-24 20:34 | 49.99065 | 19.80129 | 10236 ft | 304 kts | 75° |
| 2026-04-24 20:34 | 49.99494 | 19.83305 | 10094 ft | 296 kts | 75° |
| 2026-04-24 20:34 | 49.99913 | 19.86413 | 9855 ft | 293 kts | 75° |
| 2026-04-24 20:34 | 50.00332 | 19.89500 | 9598 ft | 289 kts | 75° |
| 2026-04-24 20:35 | 50.00740 | 19.92519 | 9468 ft | 282 kts | 75° |
| 2026-04-24 20:35 | 50.01137 | 19.95461 | 9330 ft | 274 kts | 75° |
| 2026-04-24 20:35 | 50.01522 | 19.98325 | 9207 ft | 267 kts | 75° |
| 2026-04-24 20:35 | 50.01897 | 20.01096 | 8975 ft | 265 kts | 75° |
| 2026-04-24 20:36 | 50.02282 | 20.03926 | 8706 ft | 263 kts | 75° |
| 2026-04-24 20:36 | 50.02653 | 20.06662 | 8463 ft | 262 kts | 75° |
| 2026-04-24 20:36 | 50.03027 | 20.09426 | 8189 ft | 261 kts | 75° |
| 2026-04-24 20:36 | 50.03399 | 20.12183 | 7922 ft | 260 kts | 75° |
| 2026-04-24 20:37 | 50.03771 | 20.14933 | 7652 ft | 260 kts | 75° |
| 2026-04-24 20:37 | 50.04140 | 20.17670 | 7466 ft | 256 kts | 75° |
| 2026-04-24 20:37 | 50.04556 | 20.20356 | 7188 ft | 254 kts | 65° |
| 2026-04-24 20:37 | 50.05586 | 20.22488 | 6889 ft | 245 kts | 31° |
| 2026-04-24 20:38 | 50.07108 | 20.23492 | 6637 ft | 235 kts | 5° |
| 2026-04-24 20:38 | 50.08716 | 20.23478 | 6357 ft | 230 kts | 346° |
| 2026-04-24 20:38 | 50.10272 | 20.22983 | 6156 ft | 225 kts | 344° |
| 2026-04-24 20:38 | 50.11714 | 20.22259 | 5933 ft | 214 kts | 321° |
| 2026-04-24 20:39 | 50.12484 | 20.20486 | 5857 ft | 196 kts | 282° |
| 2026-04-24 20:39 | 50.12590 | 20.18396 | 5643 ft | 194 kts | 274° |
| 2026-04-24 20:39 | 50.12625 | 20.16283 | 5394 ft | 195 kts | 270° |
| 2026-04-24 20:39 | 50.12546 | 20.14185 | 5133 ft | 193 kts | 268° |
| 2026-04-24 20:40 | 50.12446 | 20.12121 | 4886 ft | 190 kts | 265° |
| 2026-04-24 20:40 | 50.12220 | 20.10090 | 4631 ft | 190 kts | 260° |
| 2026-04-24 20:40 | 50.11933 | 20.08071 | 4384 ft | 191 kts | 260° |
| 2026-04-24 20:40 | 50.11643 | 20.06046 | 4131 ft | 192 kts | 260° |
| 2026-04-24 20:41 | 50.11357 | 20.04024 | 3880 ft | 191 kts | 260° |
| 2026-04-24 20:41 | 50.11071 | 20.02004 | 3620 ft | 191 kts | 261° |
| 2026-04-24 20:41 | 50.10787 | 19.99991 | 3379 ft | 191 kts | 261° |
| 2026-04-24 20:41 | 50.10502 | 19.97964 | 3118 ft | 192 kts | 261° |
| 2026-04-24 20:42 | 50.10216 | 19.95940 | 2867 ft | 190 kts | 261° |
| 2026-04-24 20:42 | 50.09935 | 19.93940 | 2611 ft | 187 kts | 262° |
| 2026-04-24 20:42 | 50.09665 | 19.92021 | 2373 ft | 175 kts | 262° |
| 2026-04-24 20:42 | 50.09415 | 19.90241 | 2158 ft | 161 kts | 262° |
| 2026-04-24 20:43 | 50.09191 | 19.88646 | 1969 ft | 140 kts | 261° |
| 2026-04-24 20:43 | 50.08988 | 19.87186 | 1759 ft | 137 kts | 260° |
| 2026-04-24 20:43 | 50.08787 | 19.85745 | 1589 ft | 136 kts | 260° |
| 2026-04-24 20:43 | 50.08585 | 19.84294 | 1413 ft | 137 kts | 259° |
| 2026-04-24 20:44 | 50.08384 | 19.82888 | 1231 ft | 131 kts | 259° |
| 2026-04-24 20:44 | 50.08181 | 19.81528 | 1048 ft | 127 kts | 260° |
| 2026-04-24 20:44 | 50.08000 | 19.80174 | 843 ft | 123 kts | 260° |
| 2026-04-24 20:44 | 50.07845 | 19.79004 | 790 ft | 85 kts | 259° |
| 2026-04-24 20:45 | 50.07754 | 19.78326 | 790 ft | 38 kts | 259° |
| 2026-04-24 20:45 | 50.07609 | 19.78108 | 788 ft | 25 kts | 187° |
| 2026-04-24 20:45 | 50.07517 | 19.78096 | 788 ft | 9 kts | 162° |